createdAt,value
2019-02-23T00:01:34.853Z,11.38
2019-02-23T00:03:07.102Z,11.73
2019-02-23T00:04:39.334Z,12.70
2019-02-23T00:06:11.614Z,12.23
2019-02-23T00:07:43.912Z,11.95
2019-02-23T00:09:16.240Z,14.13
2019-02-23T00:10:48.382Z,12.13
2019-02-23T00:12:20.481Z,12.98
2019-02-23T00:13:52.676Z,10.70
2019-02-23T00:15:24.920Z,11.08
2019-02-23T00:16:57.049Z,12.50
2019-02-23T00:18:29.333Z,14.80
2019-02-23T00:20:01.448Z,13.48
2019-02-23T00:21:33.554Z,11.35
2019-02-23T00:23:05.914Z,13.13
2019-02-23T00:24:38.154Z,12.35
2019-02-23T00:26:10.466Z,12.10
2019-02-23T00:27:42.738Z,12.20
2019-02-23T00:29:15.015Z,12.23
2019-02-23T00:30:47.279Z,12.55
2019-02-23T00:32:19.520Z,12.60
2019-02-23T00:33:51.709Z,12.13
2019-02-23T00:35:23.962Z,13.45
2019-02-23T00:36:56.253Z,13.40
2019-02-23T00:38:28.497Z,14.93
2019-02-23T00:40:00.737Z,13.65
2019-02-23T00:41:32.923Z,12.68
2019-02-23T00:43:05.004Z,14.33
2019-02-23T00:44:37.275Z,13.93
2019-02-23T00:46:09.528Z,13.70
2019-02-23T00:47:41.792Z,13.50
2019-02-23T00:49:14.025Z,15.18
2019-02-23T00:50:46.297Z,15.48
2019-02-23T00:52:18.533Z,14.15
2019-02-23T00:53:50.833Z,14.53
2019-02-23T00:55:22.959Z,15.90
2019-02-23T00:56:55.178Z,15.58
2019-02-23T00:58:27.293Z,17.02
2019-02-23T00:59:59.593Z,14.87
2019-02-23T01:01:31.868Z,14.65
2019-02-23T01:03:04.041Z,15.32
2019-02-23T01:04:36.214Z,16.73
2019-02-23T01:06:08.343Z,15.72
2019-02-23T01:07:40.492Z,14.35
2019-02-23T01:09:12.598Z,15.13
2019-02-23T01:10:44.874Z,16.12
2019-02-23T01:12:17.105Z,15.32
2019-02-23T01:13:49.356Z,15.30
2019-02-23T01:15:21.481Z,17.17
2019-02-23T01:16:53.792Z,17.67
2019-02-23T01:18:25.988Z,17.37
2019-02-23T01:19:58.416Z,14.43
2019-02-23T01:21:30.713Z,17.57
2019-02-23T01:23:02.946Z,16.30
2019-02-23T01:24:35.021Z,14.40
2019-02-23T01:26:07.241Z,15.18
2019-02-23T01:27:39.569Z,13.95
2019-02-23T01:29:11.796Z,15.78
2019-02-23T01:30:44.019Z,14.10
2019-02-23T01:32:16.199Z,15.10
2019-02-23T01:33:48.368Z,16.70
2019-02-23T01:35:20.462Z,16.52
2019-02-23T01:36:52.748Z,15.18
2019-02-23T01:38:24.956Z,15.98
2019-02-23T01:39:57.217Z,16.93
2019-02-23T01:41:29.309Z,15.48
2019-02-23T01:43:01.575Z,17.52
2019-02-23T01:44:33.925Z,16.62
2019-02-23T01:46:06.240Z,16.75
2019-02-23T01:47:38.525Z,17.35
2019-02-23T01:49:10.626Z,16.30
2019-02-23T01:50:42.917Z,17.77
2019-02-23T01:52:15.177Z,17.05
2019-02-23T01:53:47.310Z,15.48
2019-02-23T01:55:19.528Z,15.83
2019-02-23T01:56:51.631Z,17.05
2019-02-23T01:58:23.862Z,17.77
2019-02-23T01:59:56.007Z,16.12
2019-02-23T02:01:28.229Z,18.07
2019-02-23T02:03:00.474Z,18.62
2019-02-23T02:04:32.753Z,18.82
2019-02-23T02:06:05.121Z,17.65
2019-02-23T02:07:37.255Z,16.50
2019-02-23T02:09:09.829Z,16.27
2019-02-23T02:10:42.122Z,16.75
2019-02-23T02:12:15.543Z,17.57
2019-02-23T02:13:47.803Z,19.73
2019-02-23T02:15:19.913Z,17.73
2019-02-23T02:16:52.226Z,16.45
2019-02-23T02:18:24.488Z,17.15
2019-02-23T02:19:56.630Z,18.92
2019-02-23T02:21:28.928Z,16.62
2019-02-23T02:23:01.196Z,19.35
2019-02-23T02:24:33.434Z,17.50
2019-02-23T02:26:05.708Z,18.87
2019-02-23T02:27:37.968Z,18.35
2019-02-23T02:29:10.175Z,17.67
2019-02-23T02:30:42.475Z,19.05
2019-02-23T02:32:14.723Z,18.50
2019-02-23T02:34:05.690Z,18.32
2019-02-23T02:35:37.980Z,18.30
2019-02-23T02:37:10.101Z,18.52
2019-02-23T02:38:42.261Z,19.17
2019-02-23T02:40:14.539Z,20.25
2019-02-23T02:41:46.853Z,16.37
2019-02-23T02:43:19.128Z,17.95
2019-02-23T02:44:51.237Z,19.62
2019-02-23T02:46:23.488Z,20.43
2019-02-23T02:47:55.747Z,19.12
2019-02-23T02:49:28.025Z,19.05
2019-02-23T02:51:00.171Z,20.45
2019-02-23T02:52:32.436Z,18.48
2019-02-23T02:54:04.600Z,20.72
2019-02-23T02:55:36.840Z,17.02
2019-02-23T02:57:09.118Z,19.00
2019-02-23T02:58:41.344Z,19.40
2019-02-23T03:00:13.636Z,20.85
2019-02-23T03:01:45.885Z,18.37
2019-02-23T03:03:18.176Z,18.75
2019-02-23T03:04:50.524Z,19.87
2019-02-23T03:06:22.682Z,19.07
2019-02-23T03:07:54.953Z,21.23
2019-02-23T03:09:27.269Z,18.60
2019-02-23T03:10:59.435Z,20.37
2019-02-23T03:12:31.726Z,20.45
2019-02-23T03:14:04.105Z,18.23
2019-02-23T03:15:36.360Z,20.30
2019-02-23T03:17:08.599Z,19.37
2019-02-23T03:18:40.906Z,19.32
2019-02-23T03:20:13.250Z,19.82
2019-02-23T03:21:45.534Z,19.80
2019-02-23T03:23:17.765Z,20.72
2019-02-23T03:24:49.882Z,20.23
2019-02-23T03:26:22.187Z,19.73
2019-02-23T03:27:54.447Z,18.48
2019-02-23T03:29:26.701Z,20.70
2019-02-23T03:30:58.940Z,19.20
2019-02-23T03:32:31.291Z,18.50
2019-02-23T03:34:03.538Z,20.10
2019-02-23T03:35:35.811Z,19.90
2019-02-23T03:37:07.923Z,18.92
2019-02-23T03:38:40.173Z,19.12
2019-02-23T03:40:12.430Z,21.33
2019-02-23T03:41:44.571Z,18.70
2019-02-23T03:43:16.862Z,18.77
2019-02-23T03:44:49.114Z,20.72
2019-02-23T03:46:21.291Z,20.82
2019-02-23T03:47:53.641Z,18.35
2019-02-23T03:49:25.930Z,19.15
2019-02-23T03:50:58.198Z,18.42
2019-02-23T03:52:30.438Z,19.82
2019-02-23T03:54:02.628Z,19.30
2019-02-23T03:55:35.532Z,18.92
2019-02-23T03:57:07.776Z,19.50
2019-02-23T03:58:40.102Z,19.23
2019-02-23T04:00:12.368Z,18.77
2019-02-23T04:01:44.654Z,20.60
2019-02-23T04:03:16.871Z,20.43
2019-02-23T04:04:49.102Z,19.25
2019-02-23T04:06:21.248Z,20.15
2019-02-23T04:07:53.431Z,19.82
2019-02-23T04:09:25.751Z,21.05
2019-02-23T04:10:58.097Z,19.37
2019-02-23T04:12:30.216Z,20.55
2019-02-23T04:14:02.416Z,17.25
2019-02-23T04:15:34.669Z,19.57
2019-02-23T04:17:06.905Z,18.45
2019-02-23T04:18:39.072Z,19.55
2019-02-23T04:20:11.213Z,18.05
2019-02-23T04:21:43.488Z,19.98
2019-02-23T04:23:15.826Z,19.10
2019-02-23T04:24:47.956Z,20.05
2019-02-23T04:26:20.235Z,20.77
2019-02-23T04:27:52.522Z,18.10
2019-02-23T04:29:24.794Z,20.17
2019-02-23T04:30:57.021Z,20.48
2019-02-23T04:32:29.236Z,20.77
2019-02-23T04:34:01.501Z,20.43
2019-02-23T04:35:33.861Z,19.42
2019-02-23T04:37:06.058Z,20.23
2019-02-23T04:38:38.449Z,19.73
2019-02-23T04:40:10.573Z,19.67
2019-02-23T04:41:42.664Z,19.17
2019-02-23T04:43:14.761Z,19.55
2019-02-23T04:44:46.978Z,20.25
2019-02-23T04:46:19.249Z,18.87
2019-02-23T04:47:51.499Z,20.08
2019-02-23T04:49:25.841Z,19.37
2019-02-23T04:50:57.601Z,18.73
2019-02-23T04:52:29.720Z,20.10
2019-02-23T04:54:01.998Z,20.55
2019-02-23T04:55:34.168Z,21.45
2019-02-23T04:57:06.367Z,19.82
2019-02-23T04:58:38.645Z,19.73
2019-02-23T05:00:11.932Z,19.10
2019-02-23T05:01:44.183Z,19.67
2019-02-23T05:03:16.495Z,21.02
2019-02-23T05:04:48.750Z,19.30
2019-02-23T05:06:20.986Z,21.10
2019-02-23T05:07:53.200Z,20.92
2019-02-23T05:09:25.418Z,20.43
2019-02-23T05:10:57.644Z,19.65
2019-02-23T05:12:29.933Z,21.20
2019-02-23T05:14:02.057Z,20.97
2019-02-23T05:15:34.267Z,20.27
2019-02-23T05:17:06.541Z,21.90
2019-02-23T05:18:38.807Z,21.82
2019-02-23T05:20:11.073Z,20.37
2019-02-23T05:21:43.297Z,21.05
2019-02-23T05:23:15.522Z,20.15
2019-02-23T05:24:47.803Z,20.10
2019-02-23T05:26:20.043Z,21.35
2019-02-23T05:27:52.323Z,21.05
2019-02-23T05:29:24.600Z,20.57
2019-02-23T05:30:56.763Z,20.80
2019-02-23T05:32:28.944Z,22.45
2019-02-23T05:34:01.143Z,22.77
2019-02-23T05:35:33.394Z,23.00
2019-02-23T05:37:05.635Z,23.02
2019-02-23T05:38:37.888Z,21.25
2019-02-23T05:40:10.092Z,21.57
2019-02-23T05:41:48.192Z,22.62
2019-02-23T05:43:20.371Z,24.57
2019-02-23T05:44:52.532Z,24.87
2019-02-23T05:46:24.820Z,24.55
2019-02-23T05:47:57.164Z,21.27
2019-02-23T05:49:29.329Z,23.30
2019-02-23T05:51:01.600Z,22.67
2019-02-23T05:52:33.862Z,23.10
2019-02-23T05:54:05.984Z,23.62
2019-02-23T05:55:38.206Z,23.77
2019-02-23T05:57:10.486Z,23.18
2019-02-23T05:58:42.573Z,23.90
2019-02-23T06:00:15.649Z,23.32
2019-02-23T06:01:47.938Z,23.35
2019-02-23T06:03:20.131Z,24.72
2019-02-23T06:04:52.481Z,24.47
2019-02-23T06:06:24.780Z,24.87
2019-02-23T06:07:57.079Z,24.15
2019-02-23T06:09:29.317Z,24.45
2019-02-23T06:11:01.559Z,27.05
2019-02-23T06:12:33.753Z,23.80
2019-02-23T06:14:05.873Z,24.23
2019-02-23T06:15:38.130Z,27.82
2019-02-23T06:17:10.260Z,23.02
2019-02-23T06:18:42.581Z,24.37
2019-02-23T06:20:14.662Z,25.80
2019-02-23T06:21:53.550Z,26.80
2019-02-23T06:23:20.927Z,27.05
2019-02-23T06:24:53.189Z,26.37
2019-02-23T06:26:25.315Z,26.65
2019-02-23T06:27:57.491Z,27.87
2019-02-23T06:29:29.643Z,26.30
2019-02-23T06:31:01.883Z,27.87
2019-02-23T06:32:34.115Z,28.92
2019-02-23T06:34:15.440Z,26.95
2019-02-23T06:35:40.363Z,24.45
2019-02-23T06:37:12.514Z,26.65
2019-02-23T06:38:44.890Z,25.23
2019-02-23T06:40:17.109Z,25.77
2019-02-23T06:41:49.334Z,30.52
2019-02-23T06:43:21.561Z,26.42
2019-02-23T06:44:53.870Z,26.55
2019-02-23T06:46:26.092Z,25.57
2019-02-23T06:47:58.210Z,26.35
2019-02-23T06:49:30.444Z,28.83
2019-02-23T06:51:02.722Z,28.15
2019-02-23T06:52:34.967Z,30.48
2019-02-23T06:54:07.130Z,28.17
2019-02-23T06:55:39.287Z,29.55
2019-02-23T06:57:11.451Z,28.00
2019-02-23T06:58:43.730Z,29.65
2019-02-23T07:00:15.994Z,26.82
2019-02-23T07:01:48.155Z,29.40
2019-02-23T07:03:20.448Z,27.75
2019-02-23T07:04:52.558Z,29.95
2019-02-23T07:06:24.867Z,27.98
2019-02-23T07:07:57.170Z,29.98
2019-02-23T07:09:29.453Z,28.07
2019-02-23T07:11:01.679Z,29.35
2019-02-23T07:12:33.971Z,28.77
2019-02-23T07:14:07.065Z,32.38
2019-02-23T07:15:39.385Z,28.83
2019-02-23T07:17:11.619Z,30.77
2019-02-23T07:18:43.918Z,29.55
2019-02-23T07:20:16.217Z,27.85
2019-02-23T07:21:48.366Z,30.45
2019-02-23T07:23:20.565Z,27.67
2019-02-23T07:24:52.775Z,28.57
2019-02-23T07:26:25.011Z,30.55
2019-02-23T07:27:57.178Z,30.27
2019-02-23T07:29:29.333Z,29.07
2019-02-23T07:31:01.572Z,29.70
2019-02-23T07:32:33.799Z,30.45
2019-02-23T07:34:06.055Z,29.95
2019-02-23T07:35:38.309Z,27.52
2019-02-23T07:37:10.630Z,30.45
2019-02-23T07:38:42.869Z,30.70
2019-02-23T07:40:15.321Z,28.40
2019-02-23T07:41:47.572Z,27.95
2019-02-23T07:43:19.911Z,28.90
2019-02-23T07:44:52.063Z,30.60
2019-02-23T07:46:24.360Z,31.10
2019-02-23T07:47:56.633Z,28.98
2019-02-23T07:49:28.870Z,29.20
2019-02-23T07:51:01.328Z,27.73
2019-02-23T07:52:33.474Z,29.12
2019-02-23T07:54:05.684Z,26.82
2019-02-23T07:55:37.910Z,28.12
2019-02-23T07:57:10.195Z,28.12
2019-02-23T07:58:42.421Z,27.50
2019-02-23T08:00:14.676Z,28.65
2019-02-23T08:01:47.070Z,27.67
2019-02-23T08:03:19.287Z,26.65
2019-02-23T08:04:51.403Z,29.57
2019-02-23T08:06:23.663Z,25.37
2019-02-23T08:07:55.988Z,27.27
2019-02-23T08:09:28.261Z,26.52
2019-02-23T08:11:00.404Z,26.55
2019-02-23T08:12:32.671Z,28.20
2019-02-23T08:14:04.820Z,27.62
2019-02-23T08:15:37.272Z,28.20
2019-02-23T08:17:32.874Z,28.07
2019-02-23T08:19:04.662Z,26.00
2019-02-23T08:20:36.916Z,26.45
2019-02-23T08:22:09.027Z,25.50
2019-02-23T08:23:41.180Z,26.35
2019-02-23T08:25:13.439Z,25.50
2019-02-23T08:26:45.736Z,25.77
2019-02-23T08:28:17.974Z,26.00
2019-02-23T08:29:50.452Z,25.72
2019-02-23T08:31:22.655Z,25.90
2019-02-23T08:32:54.922Z,24.50
2019-02-23T08:34:27.256Z,24.15
2019-02-23T08:35:59.545Z,27.65
2019-02-23T08:37:31.741Z,25.50
2019-02-23T08:39:05.152Z,25.43
2019-02-23T08:40:37.460Z,25.95
2019-02-23T08:42:09.757Z,23.87
2019-02-23T08:43:42.004Z,24.82
2019-02-23T08:45:14.089Z,24.15
2019-02-23T08:46:46.348Z,24.37
2019-02-23T08:48:18.615Z,23.35
2019-02-23T08:49:50.879Z,22.82
2019-02-23T08:51:23.160Z,25.08
2019-02-23T08:52:55.423Z,23.83
2019-02-23T08:54:27.566Z,25.35
2019-02-23T08:55:59.801Z,24.23
2019-02-23T08:57:31.935Z,25.37
2019-02-23T08:59:04.190Z,22.87
2019-02-23T09:00:36.425Z,25.23
2019-02-23T09:02:08.656Z,24.60
2019-02-23T09:03:40.910Z,26.68
2019-02-23T09:05:13.146Z,24.63
2019-02-23T09:06:45.282Z,26.00
2019-02-23T09:08:17.557Z,25.37
2019-02-23T09:09:49.914Z,25.50
2019-02-23T09:11:22.001Z,25.77
2019-02-23T09:12:54.299Z,25.92
2019-02-23T09:14:26.486Z,25.97
2019-02-23T09:15:58.732Z,26.25
2019-02-23T09:17:31.007Z,24.98
2019-02-23T09:19:03.109Z,25.05
2019-02-23T09:20:35.263Z,25.50
2019-02-23T09:22:07.544Z,25.43
2019-02-23T09:23:39.695Z,24.35
2019-02-23T09:25:11.959Z,25.70
2019-02-23T09:26:44.193Z,26.17
2019-02-23T09:28:16.300Z,25.20
2019-02-23T09:29:48.580Z,24.90
2019-02-23T09:31:20.808Z,25.57
2019-02-23T09:32:52.953Z,24.40
2019-02-23T09:34:25.235Z,24.57
2019-02-23T09:35:57.445Z,24.07
2019-02-23T09:37:29.645Z,24.95
2019-02-23T09:39:01.930Z,24.18
2019-02-23T09:40:34.055Z,24.10
2019-02-23T09:42:07.743Z,23.77
2019-02-23T09:43:40.080Z,24.45
2019-02-23T09:45:12.293Z,22.52
2019-02-23T09:46:44.545Z,21.10
2019-02-23T09:48:16.776Z,24.60
2019-02-23T09:49:49.010Z,24.15
2019-02-23T09:51:21.116Z,23.15
2019-02-23T09:52:53.226Z,21.33
2019-02-23T09:54:25.322Z,23.42
2019-02-23T09:55:57.622Z,20.88
2019-02-23T09:57:29.704Z,23.27
2019-02-23T09:59:01.834Z,22.52
2019-02-23T10:00:33.934Z,22.27
2019-02-23T10:02:06.100Z,22.60
2019-02-23T10:03:38.340Z,22.40
2019-02-23T10:05:10.611Z,23.15
2019-02-23T10:06:42.699Z,21.42
2019-02-23T10:08:14.795Z,21.87
2019-02-23T10:09:47.025Z,21.90
2019-02-23T10:11:19.275Z,21.87
2019-02-23T10:12:51.456Z,23.00
2019-02-23T10:14:23.736Z,23.62
2019-02-23T10:15:55.954Z,20.82
2019-02-23T10:17:28.092Z,20.60
2019-02-23T10:19:00.311Z,22.98
2019-02-23T10:20:32.580Z,19.75
2019-02-23T10:22:04.662Z,22.52
2019-02-23T10:23:36.924Z,20.57
2019-02-23T10:25:09.202Z,19.73
2019-02-23T10:26:41.351Z,20.37
2019-02-23T10:28:13.584Z,20.52
2019-02-23T10:29:45.827Z,20.37
2019-02-23T10:31:17.917Z,19.87
2019-02-23T10:32:50.143Z,19.87
2019-02-23T10:34:22.410Z,21.17
2019-02-23T10:35:54.499Z,19.92
2019-02-23T10:37:26.619Z,19.60
2019-02-23T10:38:58.867Z,19.70
2019-02-23T10:40:31.128Z,18.25
2019-02-23T10:42:03.347Z,20.95
2019-02-23T10:43:35.465Z,20.10
2019-02-23T10:45:08.335Z,18.90
2019-02-23T10:46:40.633Z,18.07
2019-02-23T10:48:12.793Z,18.73
2019-02-23T10:49:45.093Z,19.00
2019-02-23T10:51:17.351Z,17.25
2019-02-23T10:52:49.613Z,19.20
2019-02-23T10:54:21.881Z,17.98
2019-02-23T10:55:54.089Z,17.90
2019-02-23T10:57:26.355Z,17.82
2019-02-23T10:58:58.615Z,18.92
2019-02-23T11:00:30.852Z,18.60
2019-02-23T11:02:03.082Z,20.35
2019-02-23T11:03:35.260Z,17.35
2019-02-23T11:05:07.990Z,18.70
2019-02-23T11:06:40.285Z,17.48
2019-02-23T11:08:12.594Z,19.12
2019-02-23T11:09:44.686Z,16.85
2019-02-23T11:11:16.822Z,17.80
2019-02-23T11:12:49.086Z,17.48
2019-02-23T11:14:21.228Z,18.85
2019-02-23T11:15:53.464Z,18.55
2019-02-23T11:17:25.724Z,16.73
2019-02-23T11:18:58.000Z,18.12
2019-02-23T11:20:30.810Z,16.75
2019-02-23T11:22:03.220Z,18.10
2019-02-23T11:23:43.749Z,16.55
2019-02-23T11:25:12.044Z,17.65
2019-02-23T11:26:45.057Z,15.43
2019-02-23T11:28:17.399Z,16.42
2019-02-23T11:29:49.945Z,17.42
2019-02-23T11:31:22.309Z,17.05
2019-02-23T11:32:55.191Z,16.90
2019-02-23T11:34:28.378Z,16.25
2019-02-23T11:36:00.640Z,15.70
2019-02-23T11:37:32.772Z,15.63
2019-02-23T11:39:05.428Z,16.40
2019-02-23T11:40:37.703Z,16.30
2019-02-23T11:42:09.963Z,15.65
2019-02-23T11:43:42.199Z,14.98
2019-02-23T11:45:14.296Z,18.15
2019-02-23T11:46:59.778Z,15.05
2019-02-23T11:48:20.591Z,14.58
2019-02-23T11:49:52.862Z,14.73
2019-02-23T11:51:25.152Z,15.18
2019-02-23T11:52:57.432Z,13.30
2019-02-23T11:54:29.588Z,14.13
2019-02-23T11:56:01.842Z,14.70
2019-02-23T11:57:34.121Z,14.07
2019-02-23T11:59:06.355Z,15.70
2019-02-23T12:00:38.635Z,14.33
2019-02-23T12:02:10.760Z,14.07
2019-02-23T12:03:43.009Z,15.25
2019-02-23T12:05:15.245Z,13.15
2019-02-23T12:06:47.371Z,14.30
2019-02-23T12:08:19.643Z,14.03
2019-02-23T12:09:51.920Z,15.23
2019-02-23T12:11:24.042Z,17.00
2019-02-23T12:12:56.216Z,15.10
2019-02-23T12:14:28.513Z,13.95
2019-02-23T12:16:00.754Z,13.58
2019-02-23T12:17:33.062Z,13.60
2019-02-23T12:19:05.188Z,13.32
2019-02-23T12:20:37.316Z,12.70
2019-02-23T12:22:12.258Z,12.30
2019-02-23T12:23:43.727Z,13.80
2019-02-23T12:25:16.440Z,12.95
2019-02-23T12:26:48.870Z,12.33
2019-02-23T12:28:21.125Z,13.18
2019-02-23T12:29:53.260Z,14.43
2019-02-23T12:31:25.504Z,13.20
2019-02-23T12:32:57.636Z,13.38
2019-02-23T12:34:29.778Z,12.60
2019-02-23T12:36:01.929Z,15.90
2019-02-23T12:37:34.102Z,13.98
2019-02-23T12:39:06.242Z,15.93
2019-02-23T12:40:38.536Z,13.43
2019-02-23T12:42:10.694Z,13.03
2019-02-23T12:43:42.983Z,12.28
2019-02-23T12:45:15.183Z,13.98
2019-02-23T12:46:47.451Z,13.25
2019-02-23T12:48:19.780Z,13.20
2019-02-23T12:49:52.171Z,14.50
2019-02-23T12:51:24.470Z,14.15
2019-02-23T12:52:56.596Z,12.88
2019-02-23T12:54:28.837Z,12.75
2019-02-23T12:56:01.095Z,13.28
2019-02-23T12:57:33.255Z,12.55
2019-02-23T12:59:05.506Z,12.25
2019-02-23T13:00:37.737Z,12.50
2019-02-23T13:02:10.025Z,12.15
2019-02-23T13:03:42.288Z,13.78
2019-02-23T13:05:14.556Z,11.85
2019-02-23T13:06:46.751Z,12.65
2019-02-23T13:08:19.023Z,12.40
2019-02-23T13:09:53.052Z,12.15
2019-02-23T13:11:25.327Z,12.35
2019-02-23T13:13:30.168Z,12.35
2019-02-23T13:15:09.357Z,12.05
2019-02-23T13:16:58.818Z,12.33
2019-02-23T13:19:07.692Z,13.98
2019-02-23T13:21:03.778Z,13.83
2019-02-23T13:23:07.947Z,12.25
2019-02-23T13:25:08.903Z,11.73
2019-02-23T13:27:20.676Z,12.28
2019-02-23T13:29:19.059Z,11.60
2019-02-23T13:31:35.038Z,12.68
2019-02-23T13:34:00.107Z,11.35
2019-02-23T13:36:07.894Z,10.88
2019-02-23T13:38:10.504Z,10.72
2019-02-23T13:40:12.444Z,11.88
2019-02-23T13:42:17.804Z,11.93
2019-02-23T13:44:36.943Z,10.25
2019-02-23T13:46:43.948Z,12.18
2019-02-23T13:48:53.912Z,10.85
2019-02-23T13:50:38.217Z,10.80
2019-02-23T13:53:10.558Z,10.55
2019-02-23T13:55:17.807Z,10.60
2019-02-23T13:57:30.888Z,12.25
2019-02-23T14:00:03.213Z,11.68
2019-02-23T14:02:13.374Z,10.90
2019-02-23T14:04:14.852Z,10.63
2019-02-23T14:06:31.910Z,11.73
2019-02-23T14:09:04.469Z,10.88
2019-02-23T14:10:53.333Z,10.53
2019-02-23T14:12:58.063Z,10.13
2019-02-23T14:14:44.741Z,10.85
2019-02-23T14:17:20.278Z,9.90
2019-02-23T14:19:17.899Z,10.58
2019-02-23T14:21:09.218Z,9.88
2019-02-23T14:23:20.305Z,10.23
2019-02-23T14:25:37.440Z,9.83
2019-02-23T14:28:21.928Z,10.50
2019-02-23T14:30:51.482Z,11.28
2019-02-23T14:33:08.649Z,11.33
2019-02-23T14:34:57.546Z,12.03
2019-02-23T14:37:08.851Z,9.20
2019-02-23T14:39:41.325Z,10.85
2019-02-23T14:41:47.358Z,9.45
2019-02-23T14:43:35.730Z,10.70
2019-02-23T14:45:37.838Z,9.95
2019-02-23T14:47:42.086Z,11.50
2019-02-23T14:49:44.741Z,9.80
2019-02-23T14:52:10.997Z,9.53
2019-02-23T14:54:31.255Z,10.18
2019-02-23T14:56:32.562Z,9.03
2019-02-23T14:58:43.892Z,10.63
2019-02-23T15:01:07.531Z,9.80
2019-02-23T15:03:26.392Z,9.68
2019-02-23T15:05:36.314Z,11.03
2019-02-23T15:07:46.248Z,9.40
2019-02-23T15:09:56.350Z,12.18
2019-02-23T15:11:58.001Z,11.75
2019-02-23T15:14:21.431Z,11.10
2019-02-23T15:16:44.494Z,10.78
2019-02-23T15:18:42.717Z,10.32
2019-02-23T15:20:36.703Z,9.10
2019-02-23T15:22:30.843Z,9.25
2019-02-23T15:24:28.433Z,9.18
2019-02-23T15:26:51.564Z,10.70
2019-02-23T15:28:49.447Z,8.78
2019-02-23T15:31:18.667Z,10.00
2019-02-23T15:33:43.454Z,9.90
2019-02-23T15:35:56.275Z,9.80
2019-02-23T15:38:28.252Z,9.75
2019-02-23T15:41:03.666Z,9.10
2019-02-23T15:43:10.812Z,11.60
2019-02-23T15:45:13.899Z,11.78
2019-02-23T15:47:17.030Z,10.90
2019-02-23T15:49:26.164Z,9.45
2019-02-23T15:50:58.448Z,9.78
2019-02-23T15:52:30.916Z,10.23
2019-02-23T15:54:03.298Z,10.72
2019-02-23T15:55:35.588Z,10.40
2019-02-23T15:57:07.820Z,10.53
2019-02-23T15:58:40.175Z,9.88
2019-02-23T16:00:12.647Z,10.35
2019-02-23T16:01:44.782Z,11.18
2019-02-23T16:03:17.056Z,10.28
2019-02-23T16:04:52.582Z,11.48
2019-02-23T16:06:23.311Z,12.05
2019-02-23T16:07:55.607Z,10.00
2019-02-23T16:09:27.912Z,10.78
2019-02-23T16:11:00.206Z,9.78
2019-02-23T16:12:32.474Z,9.93
2019-02-23T16:14:04.686Z,9.33
2019-02-23T16:15:36.797Z,10.50
2019-02-23T16:17:09.089Z,11.40
2019-02-23T16:18:41.298Z,10.65
2019-02-23T16:20:13.590Z,11.25
2019-02-23T16:21:45.688Z,11.25
2019-02-23T16:23:17.937Z,12.35
2019-02-23T16:24:50.077Z,10.23
2019-02-23T16:26:22.328Z,9.63
2019-02-23T16:27:54.454Z,11.00
2019-02-23T16:29:26.734Z,10.35
2019-02-23T16:31:00.043Z,10.93
2019-02-23T16:32:32.327Z,10.50
2019-02-23T16:34:07.182Z,10.20
2019-02-23T16:35:38.661Z,10.18
2019-02-23T16:37:10.909Z,11.38
2019-02-23T16:38:43.148Z,11.15
2019-02-23T16:40:15.406Z,9.38
2019-02-23T16:41:47.581Z,12.13
2019-02-23T16:43:19.834Z,11.75
2019-02-23T16:44:52.080Z,8.78
2019-02-23T16:46:24.413Z,11.12
2019-02-23T16:47:56.723Z,11.15
2019-02-23T16:49:28.987Z,11.55
2019-02-23T16:51:01.118Z,11.28
2019-02-23T16:52:33.476Z,12.88
2019-02-23T16:54:05.717Z,13.10
2019-02-23T16:55:50.373Z,12.03
2019-02-23T16:57:12.165Z,12.85
2019-02-23T16:58:44.483Z,16.25
2019-02-23T17:00:16.654Z,13.80
2019-02-23T17:01:48.826Z,14.45
2019-02-23T17:03:21.059Z,12.58
2019-02-23T17:04:54.080Z,11.50
2019-02-23T17:06:26.541Z,11.63
2019-02-23T17:07:59.052Z,11.05
2019-02-23T17:09:31.359Z,11.15
2019-02-23T17:11:03.584Z,12.80
2019-02-23T17:12:35.891Z,10.85
2019-02-23T17:14:08.236Z,12.03
2019-02-23T17:15:40.695Z,11.95
2019-02-23T17:17:13.095Z,10.90
2019-02-23T17:18:45.427Z,13.43
2019-02-23T17:20:17.684Z,12.07
2019-02-23T17:21:49.943Z,11.60
2019-02-23T17:23:22.166Z,11.78
2019-02-23T17:24:54.309Z,11.38
2019-02-23T17:26:26.666Z,10.95
2019-02-23T17:27:58.917Z,12.07
2019-02-23T17:29:31.210Z,13.32
2019-02-23T17:31:03.430Z,11.50
2019-02-23T17:32:35.681Z,11.83
2019-02-23T17:34:07.943Z,11.43
2019-02-23T17:35:40.088Z,13.85
2019-02-23T17:37:12.351Z,13.72
2019-02-23T17:38:44.944Z,14.03
2019-02-23T17:40:17.156Z,14.25
2019-02-23T17:41:49.428Z,11.90
2019-02-23T17:43:21.673Z,13.70
2019-02-23T17:44:53.784Z,12.15
2019-02-23T17:46:25.928Z,14.90
2019-02-23T17:47:58.153Z,14.10
2019-02-23T17:49:30.311Z,14.65
2019-02-23T17:51:02.598Z,13.75
2019-02-23T17:52:34.720Z,14.07
2019-02-23T17:54:06.985Z,13.53
2019-02-23T17:55:39.114Z,13.05
2019-02-23T17:57:11.372Z,14.53
2019-02-23T17:58:43.648Z,14.80
2019-02-23T18:00:18.342Z,12.85
2019-02-23T18:01:50.415Z,14.75
2019-02-23T18:03:22.688Z,13.50
2019-02-23T18:04:54.943Z,13.72
2019-02-23T18:06:27.225Z,13.83
2019-02-23T18:07:59.376Z,13.38
2019-02-23T18:09:31.642Z,15.20
2019-02-23T18:11:03.901Z,14.58
2019-02-23T18:12:36.033Z,14.10
2019-02-23T18:14:08.364Z,14.95
2019-02-23T18:15:40.654Z,16.00
2019-02-23T18:17:12.944Z,14.40
2019-02-23T18:18:45.041Z,14.28
2019-02-23T18:20:17.349Z,15.15
2019-02-23T18:21:49.622Z,16.15
2019-02-23T18:23:21.908Z,14.80
2019-02-23T18:24:54.160Z,13.85
2019-02-23T18:26:26.444Z,13.22
2019-02-23T18:27:58.650Z,15.28
2019-02-23T18:29:30.927Z,16.23
2019-02-23T18:31:03.066Z,14.70
2019-02-23T18:32:35.334Z,14.90
2019-02-23T18:34:07.489Z,16.32
2019-02-23T18:35:39.631Z,15.70
2019-02-23T18:37:11.938Z,17.90
2019-02-23T18:38:44.095Z,13.50
2019-02-23T18:40:16.397Z,14.93
2019-02-23T18:41:48.648Z,15.25
2019-02-23T18:43:21.000Z,15.65
2019-02-23T18:44:53.136Z,16.07
2019-02-23T18:46:25.461Z,15.53
2019-02-23T18:47:57.738Z,15.03
2019-02-23T18:49:29.895Z,13.83
2019-02-23T18:51:02.131Z,15.78
2019-02-23T18:52:34.395Z,15.70
2019-02-23T18:54:06.611Z,15.20
2019-02-23T18:55:41.064Z,13.35
2019-02-23T18:57:12.990Z,14.00
2019-02-23T18:58:45.244Z,15.85
2019-02-23T19:00:24.163Z,15.85
2019-02-23T19:01:51.685Z,14.30
2019-02-23T19:03:23.833Z,15.28
2019-02-23T19:04:56.108Z,15.85
2019-02-23T19:06:28.261Z,13.45
2019-02-23T19:08:00.566Z,14.55
2019-02-23T19:09:32.908Z,13.22
2019-02-23T19:11:05.057Z,13.75
2019-02-23T19:12:37.339Z,16.60
2019-02-23T19:14:09.608Z,14.53
2019-02-23T19:15:41.960Z,14.38
2019-02-23T19:17:17.729Z,14.23
2019-02-23T19:18:52.272Z,16.20
2019-02-23T19:20:24.476Z,14.83
2019-02-23T19:21:56.720Z,15.38
2019-02-23T19:23:28.973Z,17.77
2019-02-23T19:25:01.266Z,15.05
2019-02-23T19:26:38.134Z,15.05
2019-02-23T19:28:07.507Z,14.50
2019-02-23T19:29:39.676Z,15.75
2019-02-23T19:31:11.901Z,16.85
2019-02-23T19:32:44.085Z,14.40
2019-02-23T19:34:16.325Z,14.80
2019-02-23T19:35:48.492Z,15.28
2019-02-23T19:37:20.783Z,15.98
2019-02-23T19:38:52.958Z,16.75
2019-02-23T19:40:25.214Z,16.75
2019-02-23T19:41:57.468Z,14.93
2019-02-23T19:43:29.663Z,15.13
2019-02-23T19:45:01.947Z,13.25
2019-02-23T19:46:38.188Z,14.63
2019-02-23T19:48:10.313Z,13.88
2019-02-23T19:49:42.428Z,15.40
2019-02-23T19:51:14.560Z,15.48
2019-02-23T19:52:46.704Z,14.43
2019-02-23T19:54:18.842Z,14.20
2019-02-23T19:55:50.946Z,13.90
2019-02-23T19:57:23.190Z,13.15
2019-02-23T19:58:55.419Z,14.07
2019-02-23T20:00:27.717Z,15.03
2019-02-23T20:01:59.918Z,15.70
2019-02-23T20:03:32.180Z,13.93
2019-02-23T20:05:04.768Z,15.15
2019-02-23T20:06:36.936Z,13.35
2019-02-23T20:08:09.197Z,14.90
2019-02-23T20:09:41.452Z,13.70
2019-02-23T20:11:13.682Z,16.15
2019-02-23T20:12:46.003Z,15.25
2019-02-23T20:14:18.233Z,14.85
2019-02-23T20:15:50.511Z,13.72
2019-02-23T20:17:22.628Z,14.00
2019-02-23T20:18:54.969Z,13.90
2019-02-23T20:20:27.270Z,14.85
2019-02-23T20:21:59.472Z,13.98
2019-02-23T20:23:31.715Z,14.07
2019-02-23T20:25:03.989Z,14.18
2019-02-23T20:26:36.244Z,15.08
2019-02-23T20:28:08.540Z,13.62
2019-02-23T20:29:40.796Z,14.40
2019-02-23T20:31:12.863Z,13.03
2019-02-23T20:32:45.014Z,15.95
2019-02-23T20:34:17.259Z,15.25
2019-02-23T20:35:49.649Z,15.72
2019-02-23T20:37:22.028Z,15.28